• pl
  • eng

Awiacja
TAF FT 01:00 01.01.1970

TAF EPBY 251730Z 2518/2618 04010KT CAVOK
TEMPO 2518/2603 SHRA BKN030CB
PROB30 TEMPO 2518/2524 TSRA
BECMG 2520/2522 VRB03KT
PROB40 2600/2605 4000 BR
BECMG 2606/2609 09010KT
TEMPO 2610/2618 4000 TSRA BKN030CB=

TAF EPGD 251730Z 2518/2618 04010KT CAVOK
TEMPO 2518/2524 SHRA BKN030CB
PROB30 TEMPO 2519/2522 TSRA
BECMG 2519/2521 VRB03KT
PROB40 2601/2605 4000 BR
BECMG 2609/2611 04010KT
TEMPO 2615/2618 4000 TSRA BKN030CB=

TAF EPKK 251730Z 2518/2618 04010KT CAVOK
TEMPO 2518/2520 SCT050CB
BECMG 2522/2601 VRB02KT
PROB30 2601/2605 4000 BR
TEMPO 2611/2618 4000 SHRA BKN035CB
PROB40 TEMPO 2611/2618 VRB20G30KT 2000 TSRA BKN013CB=

TAF EPKT 251730Z 2518/2618 04010KT CAVOK
TEMPO 2518/2520 SCT050CB
BECMG 2522/2601 VRB02KT
TEMPO 2611/2618 4000 SHRA BKN035CB
PROB40 TEMPO 2611/2618 VRB20G30KT 2000 TSRA BKN013CB=

TAF EPLL 251730Z 2518/2618 08008KT CAVOK
PROB40 TEMPO 2518/2519 SHRA BKN040CB
PROB40 TEMPO 2611/2618 VRB15G30KT 2000 TSRA BKN030CB=

TAF EPMO 251730Z 2518/2618 09008KT CAVOK
TEMPO 2520/2612 SHRA BKN040CB
PROB40 2600/2606 BKN007
PROB40 TEMPO 2612/2618 VRB15G35KT 2000 TSRA BKN030CB=

TAF EPPO 251730Z 2518/2618 07008KT 9999 SCT040
TEMPO 2518/2522 07018G28KT 4000 SHRA BKN030CB
PROB30 TEMPO 2518/2521 VRB20G38KT 1400 TSRAGR BKN014CB=

TAF EPRZ 251730Z 2518/2618 05010KT CAVOK
TEMPO 2518/2520 SCT050CB
BECMG 2520/2523 VRB02KT
PROB40 2600/2605 2000 BR
BECMG 2608/2611 10010KT
TEMPO 2611/2615 4000 SHRA BKN035CB
PROB40 TEMPO 2611/2618 VRB20G35KT 1500 TSRAGR BKN013CB=

TAF EPSC 251730Z 2518/2618 36010KT CAVOK
PROB40 TEMPO 2520/2603 SHRA BKN035CB
BECMG 2601/2603 VRB02KT
TEMPO 2611/2617 4000 TSRA BKN030CB=

TAF EPWA 251730Z 2518/2618 09008KT CAVOK
TEMPO 2520/2611 SHRA BKN040CB
PROB40 2600/2606 BKN008
TEMPO 2611/2615 VRB15G35KT 2000 TSRA BKN030CB=

TAF EPWR 251730Z 2518/2618 07008KT 9999 SCT040
TEMPO 2518/2522 07018G28KT 4000 SHRA BKN030CB
PROB40 TEMPO 2518/2521 VRB20G38KT 1400 TSRAGR BKN014CB=
Awiacja.imgw.pl jest pogodowym serwisem informacyjnym
Instytutu Meteorologii i Gospodarki Wodnej Państwowego Instytutu Badawczego.
Copyright IMGW PIB 2009-2011© Wszelkie prawa zastrzeżone.